• Join FlightAware (Why Join?)
  • Login
  • US Flag 
03:21PM EDT


 

Airport Tracker/Info


-or-


 

Live Flight TrackerFlight Track Log ✈ AAL1404 ✈ 04-May-2013 ✈ KMIA - KDCA

Flight Track Log - Related Links

Times and Time Zones

All times are in EDT time to prevent confusion due to time zone crossing. See the AAL1404 flight status page for this flight to view local times or setup timezone preferences in your user account.

Time Position Orientation Groundspeed Altitude Reporting Facility
EDT Latitude Longitude Course Direction KTS MPH feet Rate Location/Type
06:45PM 25.7994 -80.3092 336° Northwest 167 192 1,200  Level Miami Center
06:46PM 25.8186 -80.3811 287° West 179 206 3,700 2,640 Climbing Miami Center
06:47PM 25.8719 -80.4197 327° Northwest 215 247 7,200 3,360 Climbing Miami Center
06:48PM 26.1175 -80.3903 340° North  Level FlightAware Approximate
06:48PM 25.9514 -80.4197 360° North 228 262 10,500  Level Miami Center
06:49PM 26.2292 -80.4229 336° Northwest  Level FlightAware Approximate
06:49PM 26.0453 -80.4225 358° North 291 335 12,400  Level Miami Center
06:50PM 26.3359 -80.4763 336° Northwest  Level FlightAware Approximate
06:50PM 26.1475 -80.4256 358° North 326 375 15,400  Level Miami Center
06:51PM 26.4426 -80.5296 336° Northwest  Level FlightAware Approximate
06:51PM 26.2331 -80.4328 356° North 354 407 17,600  Level Miami Center
06:52PM 26.3528 -80.4897 337° Northwest 385 443 21,100 2,760 Climbing Miami Center
06:53PM 26.4539 -80.5392 336° Northwest 398 458 23,200 2,100 Climbing Miami Center
06:54PM 26.5653 -80.5914 337° Northwest 418 481 25,400 1,980 Climbing Miami Center
06:55PM 26.6767 -80.6439 337° Northwest 424 488 27,200 1,740 Climbing Miami Center
06:56PM 26.7900 -80.7011 336° Northwest 443 510 28,900 1,920 Climbing Miami Center
06:57PM 26.9122 -80.7422 343° North 448 516 31,100 2,280 Climbing Miami Center
06:58PM 27.0281 -80.7833 342° North 443 510 33,500 1,920 Climbing Miami Center
06:59PM 27.1397 -80.8244 342° North 431 496 35,000 660 Climbing Miami Center
07:00PM 27.2511 -80.8658 342° North 424 488 34,900  Descending Miami Center
07:01PM 27.3567 -80.9022 343° North 412 474 35,000  Climbing Miami Center
07:02PM 27.4725 -80.9436 342° North 412 474 35,000 -60 Level Miami Center
07:03PM 27.5736 -80.9800 342° North 419 482 34,900  Descending Miami Center
07:04PM 27.6853 -81.0192 343° North 419 482 35,000  Climbing Miami Center
07:05PM 27.7989 -81.0608 342° North 424 488 34,900  Descending Miami Center
07:06PM 27.9103 -81.1050 341° North 424 488 35,000  Climbing Miami Center
07:07PM 28.0383 -81.1497 343° North 419 482 35,000 600 Level Miami Center
07:08PM 28.1558 -81.1942 342° North 424 488 36,200 960 Climbing Miami Center
07:09PM 28.2675 -81.2339 343° North 429 494 37,000 300 Climbing Miami Center
07:10PM 28.3747 -81.2711 343° North 429 494 36,900  Descending Miami Center
07:11PM 28.4861 -81.3133 342° North 429 494 37,000  Climbing Miami Center
07:12PM 28.6014 -81.3603 340° North 434 499 36,900 -60 Descending Miami Center
07:13PM 28.7086 -81.4025 341° North 423 487 36,900  Level Miami Center
07:14PM 28.7531 -81.4194 342° North 425 489 36,900 60 Level Jacksonville Center
07:15PM 28.8661 -81.4631 341° North 425 489 37,000  Climbing Jacksonville Center
07:16PM 28.9814 -81.5111 340° North 425 489 36,900  Descending Jacksonville Center
07:17PM 29.0947 -81.5547 341° North 431 496 37,000  Climbing Jacksonville Center
07:18PM 29.2078 -81.6031 340° North 431 496 37,000  Level Jacksonville Center
07:19PM 29.3314 -81.6539 340° North 431 496 37,000  Level Jacksonville Center
07:20PM 29.4467 -81.7003 341° North 431 496 37,000  Level Jacksonville Center
07:21PM 29.5619 -81.7464 341° North 431 496 37,000  Level Jacksonville Center
07:22PM 29.6772 -81.7858 343° North 431 496 37,000  Level Jacksonville Center
07:23PM 29.7922 -81.8275 343° North 426 490 37,000  Level Jacksonville Center
07:24PM 29.9053 -81.8669 343° North 426 490 37,000  Level Jacksonville Center
07:25PM 30.0206 -81.9019 345° North 426 490 37,000  Level Jacksonville Center
07:26PM 30.1272 -81.9222 351° North 421 484 37,000  Level Jacksonville Center
07:27PM 30.2481 -81.9042 North 427 491 37,000  Level Jacksonville Center
07:28PM 30.3667 -81.8428 24° Northeast 433 498 37,000  Level Jacksonville Center
07:29PM 30.4894 -81.7981 17° North 445 512 37,000  Level Jacksonville Center
07:30PM 30.6144 -81.7581 15° North 452 520 37,000  Level Jacksonville Center
07:31PM 30.7350 -81.7156 17° North 457 526 37,000  Level Jacksonville Center
07:32PM 30.8600 -81.6706 17° North 457 526 37,000  Level Jacksonville Center
07:33PM 30.9847 -81.6278 16° North 457 526 37,000  Level Jacksonville Center
07:34PM 31.1053 -81.5822 18° North 457 526 37,000  Level Jacksonville Center
07:35PM 31.2303 -81.5344 18° North 457 526 37,000  Level Jacksonville Center
07:36PM 31.3528 -81.4914 17° North 457 526 37,000  Level Jacksonville Center
07:37PM 31.4900 -81.4406 18° North 457 526 37,000  Level Jacksonville Center
07:38PM 31.6003 -81.4022 16° North 457 526 37,000  Level Jacksonville Center
07:39PM 31.7356 -81.3511 18° North 452 520 37,000  Level Jacksonville Center
07:40PM 31.8561 -81.3075 17° North 460 529 37,000 -60 Level Jacksonville Center
07:41PM 31.9703 -81.2664 17° North 460 529 36,900  Descending Jacksonville Center
07:42PM 32.0908 -81.2203 18° North 453 521 37,000  Climbing Jacksonville Center
07:43PM 32.2169 -81.1417 28° Northeast 458 527 36,900  Descending Jacksonville Center
07:44PM 32.3242 -81.0439 38° Northeast 477 549 37,000  Climbing Jacksonville Center
07:45PM 32.4314 -80.9456 38° Northeast 477 549 37,000  Level Jacksonville Center
07:46PM 32.5383 -80.8522 36° Northeast 477 549 37,000 -60 Level Jacksonville Center
07:47PM 32.6453 -80.7561 37° Northeast 477 549 36,900 -60 Descending Jacksonville Center
07:48PM 32.7522 -80.6597 37° Northeast 477 549 36,900  Level Jacksonville Center
07:49PM 32.8569 -80.5656 37° Northeast 477 549 37,000  Climbing Jacksonville Center
07:50PM 32.9658 -80.4661 37° Northeast 477 549 36,900  Descending Jacksonville Center
07:51PM 33.0764 -80.3664 37° Northeast 484 557 37,000  Climbing Jacksonville Center
07:52PM 33.1606 -80.2872 38° Northeast 482 555 37,000 -60 Level Jacksonville Center
07:53PM 33.2936 -80.1714 36° Northeast 488 562 36,900  Descending Jacksonville Center
07:54PM 33.3958 -80.0764 38° Northeast 482 555 37,000  Climbing Jacksonville Center
07:55PM 33.4981 -79.9783 39° Northeast 477 549 37,000 -60 Level Jacksonville Center
07:56PM 33.6022 -79.8828 37° Northeast 477 549 36,900 -60 Descending Jacksonville Center
07:57PM 33.7042 -79.7869 38° Northeast 477 549 36,900  Level Jacksonville Center
07:58PM 33.8083 -79.6908 37° Northeast 472 543 37,000  Climbing Jacksonville Center
07:59PM 33.9122 -79.5944 38° Northeast 472 543 37,000  Level Jacksonville Center
08:00PM 34.0161 -79.5003 37° Northeast 472 543 37,000  Level Jacksonville Center
08:02PM 34.2033 -79.3233 38° Northeast 454 522 37,000  Level Washington Center
08:03PM 34.3039 -79.2422 34° Northeast 470 541 37,000  Level Washington Center
08:04PM 34.4186 -79.1769 25° Northeast 464 534 37,000  Level Washington Center
08:05PM 34.5331 -79.1114 25° Northeast 452 520 37,000  Level Washington Center
08:06PM 34.6500 -79.0431 26° Northeast 452 520 37,000  Level Washington Center
08:07PM 34.7667 -78.9747 26° Northeast 452 520 37,000  Level Washington Center
08:08PM 34.8811 -78.9086 25° Northeast 452 520 37,000  Level Washington Center
08:09PM 34.9978 -78.8400 26° Northeast 452 520 37,000  Level Washington Center
08:10PM 35.1122 -78.7733 25° Northeast 452 520 37,000  Level Washington Center
08:11PM 35.2289 -78.7069 25° Northeast 457 526 37,000  Level Washington Center
08:12PM 35.3561 -78.6278 27° Northeast 465 535 37,000  Level Washington Center
08:13PM 35.4661 -78.5656 25° Northeast 470 541 37,000  Level Washington Center
08:14PM 35.5975 -78.4861 26° Northeast 470 541 37,000 -180 Level Washington Center
08:15PM 35.7200 -78.4164 25° Northeast 475 547 36,700 -660 Descending Washington Center
08:16PM 35.8344 -78.3461 26° Northeast 464 534 35,700 -1,020 Descending Washington Center
08:17PM 35.9528 -78.2758 26° Northeast 464 534 34,700 -1,020 Descending Washington Center
08:18PM 36.0692 -78.2053 26° Northeast 464 534 33,700 -2,040 Descending Washington Center
08:19PM 36.1856 -78.1344 26° Northeast 464 534 30,800 -2,640 Descending Washington Center
08:20PM 36.2994 -78.0661 26° Northeast 459 528 28,400 -1,920 Descending Washington Center
08:21PM 36.4072 -77.9997 26° Northeast 447 514 27,000 -720 Descending Washington Center
08:22PM 36.5022 -77.9408 26° Northeast 431 496 27,000 -300 Level Washington Center
08:23PM 36.6100 -77.8767 26° Northeast 431 496 26,500 -720 Descending Washington Center
08:24PM 36.7197 -77.8075 27° Northeast 426 490 25,600 -960 Descending Washington Center
08:25PM 36.8275 -77.7403 27° Northeast 426 490 24,600 -1,020 Descending Washington Center
08:26PM 36.9392 -77.6733 26° Northeast 426 490 23,600 -1,020 Descending Washington Center
08:27PM 37.0489 -77.6033 27° Northeast 431 496 22,600 -840 Descending Washington Center
08:28PM 37.1542 -77.5383 26° Northeast 431 496 22,000 -300 Descending Washington Center
08:29PM 37.2617 -77.4708 27° Northeast 425 489 22,000  Level Washington Center
08:30PM 37.3669 -77.4081 25° Northeast 425 489 22,000 -60 Level Washington Center
08:31PM 37.4744 -77.3400 27° Northeast 425 489 21,900 -600 Descending Washington Center
08:32PM 37.5875 -77.3031 15° North 425 489 20,900 -1,260 Descending Washington Center
08:33PM 37.7108 -77.2769 10° North 418 481 19,400 -1,680 Descending Washington Center
08:34PM 37.8217 -77.2558 North 412 474 17,600 -1,980 Descending Washington Center
08:35PM 37.9283 -77.2319 10° North 407 468 15,500 -2,040 Descending Washington Center
08:36PM 38.0247 -77.2128 North 392 451 13,600 -1,740 Descending Washington Center
08:37PM 38.1272 -77.1939 North 379 436 12,000 -1,800 Descending Washington Center
08:38PM 38.2233 -77.1697 11° North 368 423 10,100 -1,020 Descending Washington Center
08:39PM 38.3172 -77.1558 North 349 402 10,000 -60 Descending Washington Center
08:40PM 38.4072 -77.1392 North 337 388 10,000  Level Washington Center
08:41PM 38.5075 -77.1147 11° North 331 381 10,000  Level Washington Center
08:42PM 38.5975 -77.0925 11° North 331 381 10,000 -60 Level Washington Center
08:43PM 38.6792 -77.0756 North 325 374 9,900 -780 Descending Washington Center
08:44PM 38.7564 -77.0717 North 293 337 8,500 -1,620 Descending Washington Center
08:45PM 38.8333 -77.1167 336° Northwest 286 329 6,700 -1,620 Descending Potomac TRACON
08:46PM 38.8833 -77.1833 314° West 266 306 5,200 -900 Descending Potomac TRACON
08:47PM 38.9333 -77.2500 314° West 234 269 5,000 -720 Descending Potomac TRACON
08:48PM 38.9833 -77.2667 345° North 209 241 3,800 -1,020 Descending Potomac TRACON
08:49PM 39.0000 -77.2167 67° East 184 212 3,000 -420 Descending Potomac TRACON
08:50PM 38.9667 -77.1833 142° Southeast 167 192 3,000 -360 Level Potomac TRACON
08:51PM 38.9500 -77.1500 123° Southeast 159 183 2,400 -780 Descending Potomac TRACON
08:52PM 38.9167 -77.1000 131° Southeast 142 163 1,600 -780 Descending Potomac TRACON
08:53PM 38.9000 -77.0667 123° Southeast 130 150 1,000 -720 Descending Potomac TRACON
08:54PM 38.8667 -77.0333 142° Southeast 128 147 300 -720 Descending Potomac TRACON